sensor_id;sensor_type;location;lat;lon;timestamp;P1;durP1;ratioP1;P2;durP2;ratioP2
71637;SDS011;59485;43.542;-5.676;2023-08-06T15:12:15;33.63;;;2.13;;
71637;SDS011;59485;43.542;-5.676;2023-08-06T15:14:42;8.15;;;1.92;;
71637;SDS011;59485;43.542;-5.676;2023-08-06T15:17:07;8.47;;;1.83;;
71637;SDS011;59485;43.542;-5.676;2023-08-06T15:19:33;7.83;;;1.47;;
71637;SDS011;59485;43.542;-5.676;2023-08-06T15:21:58;7.63;;;1.40;;
71637;SDS011;59485;43.542;-5.676;2023-08-06T15:24:23;9.73;;;1.60;;
71637;SDS011;59485;43.542;-5.676;2023-08-06T15:26:49;11.23;;;2.37;;
71637;SDS011;59485;43.542;-5.676;2023-08-06T15:29:14;8.03;;;1.47;;
71637;SDS011;59485;43.542;-5.676;2023-08-06T15:31:39;10.53;;;1.53;;
71637;SDS011;59485;43.542;-5.676;2023-08-06T15:34:05;8.55;;;1.33;;
71637;SDS011;59485;43.542;-5.676;2023-08-06T15:36:32;8.13;;;1.67;;
71637;SDS011;59485;43.542;-5.676;2023-08-06T15:38:57;10.73;;;1.50;;
71637;SDS011;59485;43.542;-5.676;2023-08-06T15:41:23;6.87;;;1.50;;
71637;SDS011;59485;43.542;-5.676;2023-08-06T15:43:48;9.30;;;1.48;;
71637;SDS011;59485;43.542;-5.676;2023-08-06T15:46:13;7.60;;;1.20;;
71637;SDS011;59485;43.542;-5.676;2023-08-06T15:48:40;9.70;;;1.95;;
71637;SDS011;59485;43.542;-5.676;2023-08-06T15:51:06;8.13;;;1.63;;
71637;SDS011;59485;43.542;-5.676;2023-08-06T15:53:31;9.17;;;1.27;;
71637;SDS011;59485;43.542;-5.676;2023-08-06T15:55:57;8.73;;;1.90;;
71637;SDS011;59485;43.542;-5.676;2023-08-06T15:58:22;7.87;;;1.50;;
71637;SDS011;59485;43.542;-5.676;2023-08-06T16:00:47;9.57;;;1.80;;
71637;SDS011;59485;43.542;-5.676;2023-08-06T16:03:13;7.95;;;1.52;;
71637;SDS011;59485;43.542;-5.676;2023-08-06T16:05:39;7.43;;;1.03;;
71637;SDS011;59485;43.542;-5.676;2023-08-06T16:08:04;11.97;;;1.90;;
71637;SDS011;59485;43.542;-5.676;2023-08-06T16:13:19;10.53;;;2.20;;
71637;SDS011;59485;43.542;-5.676;2023-08-06T16:18:52;7.38;;;1.60;;
71637;SDS011;59485;43.542;-5.676;2023-08-06T16:21:18;7.20;;;1.80;;
71637;SDS011;59485;43.542;-5.676;2023-08-06T16:23:49;9.95;;;1.85;;
71637;SDS011;59485;43.542;-5.676;2023-08-06T16:26:15;11.07;;;2.23;;
71637;SDS011;59485;43.542;-5.676;2023-08-06T16:28:45;8.95;;;1.60;;
71637;SDS011;59485;43.542;-5.676;2023-08-06T16:31:11;11.80;;;2.10;;
71637;SDS011;59485;43.542;-5.676;2023-08-06T16:33:36;8.27;;;1.83;;
71637;SDS011;59485;43.542;-5.676;2023-08-06T16:36:05;7.93;;;2.17;;
71637;SDS011;59485;43.542;-5.676;2023-08-06T16:38:33;5.57;;;1.83;;
71637;SDS011;59485;43.542;-5.676;2023-08-06T16:40:58;7.33;;;1.90;;
71637;SDS011;59485;43.542;-5.676;2023-08-06T16:43:25;8.68;;;1.98;;
71637;SDS011;59485;43.542;-5.676;2023-08-06T16:45:55;8.87;;;1.93;;
71637;SDS011;59485;43.542;-5.676;2023-08-06T16:48:21;8.23;;;1.88;;
71637;SDS011;59485;43.542;-5.676;2023-08-06T16:50:58;10.60;;;1.95;;
71637;SDS011;59485;43.542;-5.676;2023-08-06T16:53:33;11.47;;;1.77;;
71637;SDS011;59485;43.542;-5.676;2023-08-06T16:55:59;8.93;;;1.70;;
71637;SDS011;59485;43.542;-5.676;2023-08-06T16:58:26;9.23;;;2.17;;
71637;SDS011;59485;43.542;-5.676;2023-08-06T17:00:52;9.43;;;1.93;;
71637;SDS011;59485;43.542;-5.676;2023-08-06T17:03:17;6.78;;;1.95;;
71637;SDS011;59485;43.542;-5.676;2023-08-06T17:05:43;11.10;;;1.30;;
71637;SDS011;59485;43.542;-5.676;2023-08-06T17:08:12;11.03;;;1.90;;
71637;SDS011;59485;43.542;-5.676;2023-08-06T17:10:41;6.93;;;1.60;;
71637;SDS011;59485;43.542;-5.676;2023-08-06T17:13:10;7.40;;;2.00;;
71637;SDS011;59485;43.542;-5.676;2023-08-06T17:15:38;10.30;;;1.60;;
71637;SDS011;59485;43.542;-5.676;2023-08-06T17:18:06;9.15;;;1.77;;
71637;SDS011;59485;43.542;-5.676;2023-08-06T17:23:19;6.32;;;1.80;;
71637;SDS011;59485;43.542;-5.676;2023-08-06T17:26:09;8.97;;;1.97;;
71637;SDS011;59485;43.542;-5.676;2023-08-06T17:28:37;14.30;;;2.08;;
71637;SDS011;59485;43.542;-5.676;2023-08-06T17:31:06;11.70;;;2.00;;
71637;SDS011;59485;43.542;-5.676;2023-08-06T17:33:36;7.32;;;1.92;;
71637;SDS011;59485;43.542;-5.676;2023-08-06T17:36:02;11.73;;;2.53;;
71637;SDS011;59485;43.542;-5.676;2023-08-06T17:38:27;10.67;;;2.70;;
71637;SDS011;59485;43.542;-5.676;2023-08-06T17:40:56;13.10;;;2.40;;
71637;SDS011;59485;43.542;-5.676;2023-08-06T17:43:23;7.90;;;1.57;;
71637;SDS011;59485;43.542;-5.676;2023-08-06T17:45:48;9.77;;;2.08;;
71637;SDS011;59485;43.542;-5.676;2023-08-06T17:48:14;10.57;;;2.27;;
71637;SDS011;59485;43.542;-5.676;2023-08-06T17:50:45;11.65;;;2.90;;
71637;SDS011;59485;43.542;-5.676;2023-08-06T17:53:11;8.80;;;3.67;;
71637;SDS011;59485;43.542;-5.676;2023-08-06T17:55:37;7.70;;;1.67;;
71637;SDS011;59485;43.542;-5.676;2023-08-06T17:58:02;8.52;;;1.70;;
71637;SDS011;59485;43.542;-5.676;2023-08-06T18:00:30;7.60;;;1.90;;
71637;SDS011;59485;43.542;-5.676;2023-08-06T18:02:57;9.75;;;1.65;;
71637;SDS011;59485;43.542;-5.676;2023-08-06T18:05:23;8.27;;;1.87;;
71637;SDS011;59485;43.542;-5.676;2023-08-06T18:07:52;10.73;;;2.28;;
71637;SDS011;59485;43.542;-5.676;2023-08-06T18:10:17;9.05;;;2.33;;
71637;SDS011;59485;43.542;-5.676;2023-08-06T18:12:43;7.67;;;2.10;;
71637;SDS011;59485;43.542;-5.676;2023-08-06T18:15:11;7.80;;;2.20;;
71637;SDS011;59485;43.542;-5.676;2023-08-06T18:17:38;12.50;;;3.65;;
71637;SDS011;59485;43.542;-5.676;2023-08-06T18:20:06;8.82;;;3.55;;
71637;SDS011;59485;43.542;-5.676;2023-08-06T18:22:32;11.73;;;3.30;;
71637;SDS011;59485;43.542;-5.676;2023-08-06T18:25:00;13.43;;;6.07;;
71637;SDS011;59485;43.542;-5.676;2023-08-06T18:27:35;16.55;;;5.20;;
71637;SDS011;59485;43.542;-5.676;2023-08-06T18:30:00;12.02;;;3.38;;
71637;SDS011;59485;43.542;-5.676;2023-08-06T18:32:26;14.23;;;4.50;;
71637;SDS011;59485;43.542;-5.676;2023-08-06T18:34:53;13.15;;;4.57;;
71637;SDS011;59485;43.542;-5.676;2023-08-06T18:37:18;14.17;;;4.40;;
71637;SDS011;59485;43.542;-5.676;2023-08-06T18:39:47;14.43;;;4.80;;
71637;SDS011;59485;43.542;-5.676;2023-08-06T18:42:19;14.38;;;4.28;;
71637;SDS011;59485;43.542;-5.676;2023-08-06T18:47:22;9.10;;;2.38;;
71637;SDS011;59485;43.542;-5.676;2023-08-06T18:49:50;13.10;;;4.37;;
71637;SDS011;59485;43.542;-5.676;2023-08-06T18:54:46;13.27;;;3.87;;
71637;SDS011;59485;43.542;-5.676;2023-08-06T18:57:15;10.50;;;3.03;;
71637;SDS011;59485;43.542;-5.676;2023-08-06T18:59:59;13.15;;;4.25;;
71637;SDS011;59485;43.542;-5.676;2023-08-06T19:03:06;13.07;;;3.28;;
71637;SDS011;59485;43.542;-5.676;2023-08-06T19:05:33;10.63;;;2.42;;
71637;SDS011;59485;43.542;-5.676;2023-08-06T19:07:59;12.17;;;3.60;;
71637;SDS011;59485;43.542;-5.676;2023-08-06T19:12:57;9.87;;;2.43;;
71637;SDS011;59485;43.542;-5.676;2023-08-06T19:15:23;10.48;;;2.97;;
71637;SDS011;59485;43.542;-5.676;2023-08-06T19:17:48;16.53;;;4.03;;
71637;SDS011;59485;43.542;-5.676;2023-08-06T19:20:14;10.93;;;2.70;;
71637;SDS011;59485;43.542;-5.676;2023-08-06T19:22:48;10.67;;;3.30;;
71637;SDS011;59485;43.542;-5.676;2023-08-06T19:25:14;11.48;;;2.70;;
71637;SDS011;59485;43.542;-5.676;2023-08-06T19:27:40;11.77;;;3.07;;
71637;SDS011;59485;43.542;-5.676;2023-08-06T19:30:15;13.73;;;3.85;;
71637;SDS011;59485;43.542;-5.676;2023-08-06T19:32:40;12.97;;;4.03;;
71637;SDS011;59485;43.542;-5.676;2023-08-06T19:37:50;10.25;;;3.05;;
71637;SDS011;59485;43.542;-5.676;2023-08-06T19:40:16;16.27;;;3.40;;
71637;SDS011;59485;43.542;-5.676;2023-08-06T19:42:43;10.07;;;2.45;;
71637;SDS011;59485;43.542;-5.676;2023-08-06T19:45:08;14.50;;;3.80;;
71637;SDS011;59485;43.542;-5.676;2023-08-06T19:50:09;13.40;;;3.43;;
71637;SDS011;59485;43.542;-5.676;2023-08-06T19:52:34;11.00;;;2.95;;
71637;SDS011;59485;43.542;-5.676;2023-08-06T19:54:59;14.67;;;3.03;;
71637;SDS011;59485;43.542;-5.676;2023-08-06T19:57:25;9.73;;;2.63;;
71637;SDS011;59485;43.542;-5.676;2023-08-06T19:59:51;11.03;;;3.83;;
71637;SDS011;59485;43.542;-5.676;2023-08-06T20:02:16;26.67;;;4.57;;
71637;SDS011;59485;43.542;-5.676;2023-08-06T20:04:42;16.60;;;4.00;;
71637;SDS011;59485;43.542;-5.676;2023-08-06T20:07:07;14.87;;;3.93;;
71637;SDS011;59485;43.542;-5.676;2023-08-06T20:12:09;10.23;;;2.88;;
71637;SDS011;59485;43.542;-5.676;2023-08-06T20:17:05;14.05;;;2.85;;
71637;SDS011;59485;43.542;-5.676;2023-08-06T20:19:31;14.45;;;2.55;;
71637;SDS011;59485;43.542;-5.676;2023-08-06T20:22:05;11.00;;;2.43;;
71637;SDS011;59485;43.542;-5.676;2023-08-06T20:24:31;13.95;;;3.13;;
71637;SDS011;59485;43.542;-5.676;2023-08-06T20:26:56;14.57;;;3.67;;
71637;SDS011;59485;43.542;-5.676;2023-08-06T20:29:22;9.53;;;2.17;;
71637;SDS011;59485;43.542;-5.676;2023-08-06T20:31:47;17.43;;;3.53;;
71637;SDS011;59485;43.542;-5.676;2023-08-06T20:34:12;15.25;;;3.13;;
71637;SDS011;59485;43.542;-5.676;2023-08-06T20:36:38;13.20;;;2.60;;
71637;SDS011;59485;43.542;-5.676;2023-08-06T20:39:03;15.20;;;3.47;;
71637;SDS011;59485;43.542;-5.676;2023-08-06T20:41:28;11.27;;;2.70;;
71637;SDS011;59485;43.542;-5.676;2023-08-06T20:46:21;13.25;;;2.47;;
71637;SDS011;59485;43.542;-5.676;2023-08-06T20:48:47;13.37;;;2.37;;
71637;SDS011;59485;43.542;-5.676;2023-08-06T20:51:12;14.40;;;2.93;;
71637;SDS011;59485;43.542;-5.676;2023-08-06T20:53:39;16.23;;;2.57;;
71637;SDS011;59485;43.542;-5.676;2023-08-06T20:56:10;13.38;;;3.00;;
71637;SDS011;59485;43.542;-5.676;2023-08-06T20:58:36;14.75;;;2.80;;
71637;SDS011;59485;43.542;-5.676;2023-08-06T21:01:02;21.13;;;3.40;;
71637;SDS011;59485;43.542;-5.676;2023-08-06T21:03:28;13.73;;;2.63;;
71637;SDS011;59485;43.542;-5.676;2023-08-06T21:08:23;13.68;;;2.65;;
71637;SDS011;59485;43.542;-5.676;2023-08-06T21:10:48;16.10;;;3.70;;
71637;SDS011;59485;43.542;-5.676;2023-08-06T21:13:14;13.07;;;3.70;;
71637;SDS011;59485;43.542;-5.676;2023-08-06T21:15:39;14.43;;;3.63;;
71637;SDS011;59485;43.542;-5.676;2023-08-06T21:18:04;14.57;;;3.83;;
71637;SDS011;59485;43.542;-5.676;2023-08-06T21:20:31;11.48;;;2.97;;
71637;SDS011;59485;43.542;-5.676;2023-08-06T21:22:57;11.07;;;3.40;;
71637;SDS011;59485;43.542;-5.676;2023-08-06T21:25:22;14.67;;;3.33;;
71637;SDS011;59485;43.542;-5.676;2023-08-06T21:27:47;14.53;;;3.17;;
71637;SDS011;59485;43.542;-5.676;2023-08-06T21:30:13;13.53;;;2.67;;
71637;SDS011;59485;43.542;-5.676;2023-08-06T21:32:38;19.63;;;3.60;;
71637;SDS011;59485;43.542;-5.676;2023-08-06T21:35:04;11.53;;;2.27;;
71637;SDS011;59485;43.542;-5.676;2023-08-06T21:37:29;15.60;;;2.10;;
71637;SDS011;59485;43.542;-5.676;2023-08-06T21:39:54;12.20;;;2.20;;
71637;SDS011;59485;43.542;-5.676;2023-08-06T21:42:20;12.80;;;3.42;;
71637;SDS011;59485;43.542;-5.676;2023-08-06T21:44:46;11.63;;;2.10;;
71637;SDS011;59485;43.542;-5.676;2023-08-06T21:47:11;12.93;;;2.50;;
71637;SDS011;59485;43.542;-5.676;2023-08-06T21:49:36;10.68;;;2.13;;
71637;SDS011;59485;43.542;-5.676;2023-08-06T21:52:02;13.13;;;2.00;;
71637;SDS011;59485;43.542;-5.676;2023-08-06T21:54:30;12.63;;;2.60;;
71637;SDS011;59485;43.542;-5.676;2023-08-06T21:56:55;13.95;;;3.13;;
71637;SDS011;59485;43.542;-5.676;2023-08-06T21:59:21;13.37;;;3.10;;
71637;SDS011;59485;43.542;-5.676;2023-08-06T22:01:46;13.27;;;2.90;;
71637;SDS011;59485;43.542;-5.676;2023-08-06T22:04:11;13.90;;;4.47;;
71637;SDS011;59485;43.542;-5.676;2023-08-06T22:06:37;13.73;;;3.77;;
71637;SDS011;59485;43.542;-5.676;2023-08-06T22:09:02;11.40;;;2.37;;
71637;SDS011;59485;43.542;-5.676;2023-08-06T22:11:29;8.15;;;2.00;;
71637;SDS011;59485;43.542;-5.676;2023-08-06T22:13:54;13.00;;;2.10;;
71637;SDS011;59485;43.542;-5.676;2023-08-06T22:16:19;11.90;;;2.10;;
71637;SDS011;59485;43.542;-5.676;2023-08-06T22:18:45;10.93;;;1.70;;
71637;SDS011;59485;43.542;-5.676;2023-08-06T22:21:10;10.33;;;1.73;;
71637;SDS011;59485;43.542;-5.676;2023-08-06T22:23:35;10.23;;;1.60;;
71637;SDS011;59485;43.542;-5.676;2023-08-06T22:26:01;11.33;;;2.00;;
71637;SDS011;59485;43.542;-5.676;2023-08-06T22:28:26;12.33;;;2.10;;
71637;SDS011;59485;43.542;-5.676;2023-08-06T22:30:52;8.65;;;1.95;;
71637;SDS011;59485;43.542;-5.676;2023-08-06T22:33:17;12.47;;;1.83;;
71637;SDS011;59485;43.542;-5.676;2023-08-06T22:35:43;12.93;;;2.10;;
71637;SDS011;59485;43.542;-5.676;2023-08-06T22:38:08;9.07;;;1.73;;
71637;SDS011;59485;43.542;-5.676;2023-08-06T22:40:34;11.43;;;1.87;;
71637;SDS011;59485;43.542;-5.676;2023-08-06T22:43:02;10.10;;;2.00;;
71637;SDS011;59485;43.542;-5.676;2023-08-06T22:45:27;11.00;;;2.10;;
71637;SDS011;59485;43.542;-5.676;2023-08-06T22:50:18;8.70;;;1.95;;
71637;SDS011;59485;43.542;-5.676;2023-08-06T22:52:43;8.83;;;1.53;;
71637;SDS011;59485;43.542;-5.676;2023-08-06T22:55:08;11.10;;;1.73;;
71637;SDS011;59485;43.542;-5.676;2023-08-06T22:57:34;7.73;;;1.70;;
71637;SDS011;59485;43.542;-5.676;2023-08-06T23:00:00;10.57;;;2.05;;
71637;SDS011;59485;43.542;-5.676;2023-08-06T23:02:25;13.00;;;1.90;;
71637;SDS011;59485;43.542;-5.676;2023-08-06T23:04:50;7.53;;;1.50;;
71637;SDS011;59485;43.542;-5.676;2023-08-06T23:07:22;8.17;;;1.90;;
71637;SDS011;59485;43.542;-5.676;2023-08-06T23:09:47;10.35;;;1.88;;
71637;SDS011;59485;43.542;-5.676;2023-08-06T23:12:13;8.47;;;1.93;;
71637;SDS011;59485;43.542;-5.676;2023-08-06T23:14:38;6.90;;;1.67;;
71637;SDS011;59485;43.542;-5.676;2023-08-06T23:17:03;10.30;;;2.20;;
71637;SDS011;59485;43.542;-5.676;2023-08-06T23:19:29;10.83;;;1.60;;
71637;SDS011;59485;43.542;-5.676;2023-08-06T23:21:55;13.90;;;2.13;;
71637;SDS011;59485;43.542;-5.676;2023-08-06T23:24:21;8.23;;;1.80;;
71637;SDS011;59485;43.542;-5.676;2023-08-06T23:26:51;15.15;;;2.15;;
71637;SDS011;59485;43.542;-5.676;2023-08-06T23:29:16;10.83;;;1.90;;
71637;SDS011;59485;43.542;-5.676;2023-08-06T23:31:44;11.68;;;2.45;;
71637;SDS011;59485;43.542;-5.676;2023-08-06T23:34:10;12.07;;;1.63;;
71637;SDS011;59485;43.542;-5.676;2023-08-06T23:36:36;13.10;;;2.28;;
71637;SDS011;59485;43.542;-5.676;2023-08-06T23:39:01;9.73;;;1.77;;
71637;SDS011;59485;43.542;-5.676;2023-08-06T23:41:27;12.07;;;2.50;;
71637;SDS011;59485;43.542;-5.676;2023-08-06T23:43:52;10.27;;;1.85;;
71637;SDS011;59485;43.542;-5.676;2023-08-06T23:46:18;8.43;;;1.83;;
71637;SDS011;59485;43.542;-5.676;2023-08-06T23:48:43;12.17;;;1.73;;
71637;SDS011;59485;43.542;-5.676;2023-08-06T23:51:09;12.83;;;2.47;;
71637;SDS011;59485;43.542;-5.676;2023-08-06T23:53:34;9.03;;;1.23;;
71637;SDS011;59485;43.542;-5.676;2023-08-06T23:55:59;9.37;;;1.63;;
71637;SDS011;59485;43.542;-5.676;2023-08-06T23:58:34;9.30;;;2.03;;
